Time;durP1;ratioP1;P1;durP2;ratioP2;P2;SDS_P1;SDS_P2;PMS_P1;PMS_P2;Temp;Humidity;BMP_temperature;BMP_pressure;BME280_temperature;BME280_humidity;BME280_pressure;Samples;Min_cycle;Max_cycle;Signal;HPM_P1;HPM_P2
2021/03/30 00:00:06;;;;;;;0.90;0.90;;;;;;;11.88;70.81;101181.44;5089226;28;20199;-71
2021/03/30 00:02:35;;;;;;;1.93;0.97;;;;;;;11.71;70.05;101163.69;5087611;28;20622;-68
2021/03/30 00:05:02;;;;;;;7.53;1.07;;;;;;;11.89;69.77;101188.53;5090898;28;20619;-68
2021/03/30 00:07:29;;;;;;;1.00;0.73;;;;;;;11.87;70.41;101187.78;5088821;28;20561;-68
2021/03/30 00:09:57;;;;;;;3.93;1.30;;;;;;;11.89;70.62;101196.63;5088056;28;20270;-68
2021/03/30 00:12:24;;;;;;;1625.73;696.90;;;;;;;11.89;70.56;101193.94;5089903;28;20218;-68
2021/03/30 00:14:51;;;;;;;170.97;74.47;;;;;;;11.90;70.42;101192.97;5087965;28;20319;-68
2021/03/30 00:17:19;;;;;;;59.50;25.20;;;;;;;11.95;70.15;101193.56;5085872;28;20205;-68
2021/03/30 00:19:47;;;;;;;11.47;7.80;;;;;;;11.69;71.45;101157.56;5081683;28;20278;-68
2021/03/30 00:22:14;;;;;;;28.90;14.47;;;;;;;12.05;69.30;101201.88;5085178;28;20266;-68
2021/03/30 00:24:41;;;;;;;12.63;5.40;;;;;;;12.08;70.56;101210.59;5084190;28;20572;-68
2021/03/30 00:27:08;;;;;;;7.10;2.00;;;;;;;12.12;69.19;101214.81;5090901;28;20567;-68
2021/03/30 00:29:43;;;;;;;4.70;2.80;;;;;;;12.12;70.18;101217.50;5082771;28;20191;-68
2021/03/30 00:32:11;;;;;;;3.13;2.03;;;;;;;12.12;69.45;101211.25;5086488;28;20611;-68
2021/03/30 00:34:39;;;;;;;55.77;39.17;;;;;;;12.12;69.60;101208.56;5088485;28;20228;-68
2021/03/30 00:37:07;;;;;;;6.30;4.50;;;;;;;11.89;69.70;101175.09;5088068;28;20256;-68
2021/03/30 00:39:34;;;;;;;23.40;16.93;;;;;;;12.12;69.06;101212.13;5088616;28;20373;-68
2021/03/30 00:42:02;;;;;;;3.13;2.00;;;;;;;12.11;69.43;101204.16;5084473;28;20188;-68
2021/03/30 00:44:29;;;;;;;1.07;1.07;;;;;;;12.08;69.29;101205.22;5090616;28;20198;-68
2021/03/30 00:46:57;;;;;;;4.73;2.47;;;;;;;12.11;69.81;101194.25;5087322;28;20226;-68
2021/03/30 00:49:24;;;;;;;3.00;1.53;;;;;;;12.04;70.15;101208.22;5088434;28;20186;-68
2021/03/30 00:51:54;;;;;;;2.83;1.50;;;;;;;11.86;69.89;101171.75;5086444;28;20221;-68
2021/03/30 00:54:41;;;;;;;7.30;1.80;;;;;;;12.01;69.55;101192.28;5079142;28;20207;-68
2021/03/30 00:57:10;;;;;;;1.00;0.90;;;;;;;11.99;68.77;101189.69;5086081;28;20286;-68
2021/03/30 00:59:37;;;;;;;2.60;1.03;;;;;;;12.05;68.94;101207.25;5087311;28;20196;-68
2021/03/30 01:02:05;;;;;;;2.83;1.00;;;;;;;12.02;69.00;101199.38;5086508;28;20194;-67
2021/03/30 01:04:32;;;;;;;3.50;1.00;;;;;;;11.97;68.67;101194.31;5088386;28;20193;-68
2021/03/30 01:07:00;;;;;;;1.50;0.93;;;;;;;11.91;69.48;101201.91;5084985;28;20323;-68
2021/03/30 01:09:46;;;;;;;2.10;0.97;;;;;;;11.86;70.08;101195.97;5082859;28;20558;-68
2021/03/30 01:12:34;;;;;;;1.97;1.03;;;;;;;11.86;70.50;101206.72;5085177;28;20296;-68
2021/03/30 01:15:10;;;;;;;1.53;1.03;;;;;;;11.89;69.61;101193.94;5089152;28;20229;-68
2021/03/30 01:17:44;;;;;;;1.60;1.03;;;;;;;11.89;69.07;101202.00;5086362;28;20288;-68
2021/03/30 01:20:49;;;;;;;1.37;1.00;;;;;;;11.88;69.47;101207.50;5086115;28;20546;-68
2021/03/30 01:23:53;;;;;;;1.87;0.87;;;;;;;11.89;69.27;101211.91;5084742;28;20198;-68
2021/03/30 01:26:32;;;;;;;1.77;1.03;;;;;;;11.87;68.93;101201.25;5087438;28;20193;-69
2021/03/30 01:29:25;;;;;;;1.17;1.03;;;;;;;11.84;69.27;101198.75;5085756;28;20243;-68
2021/03/30 01:31:59;;;;;;;2.00;0.90;;;;;;;11.84;69.76;101209.53;5086967;28;20197;-68
2021/03/30 01:34:27;;;;;;;1.03;0.80;;;;;;;11.69;70.67;101197.91;5089155;28;20201;-68
2021/03/30 01:36:57;;;;;;;1.93;1.20;;;;;;;11.80;69.31;101195.41;5085204;28;20391;-67
2021/03/30 01:39:27;;;;;;;2.90;1.00;;;;;;;11.64;70.32;101185.72;5085531;28;20215;-68
2021/03/30 01:41:55;;;;;;;1.03;1.00;;;;;;;11.73;70.35;101202.13;5084583;28;20204;-68
2021/03/30 01:44:26;;;;;;;2.00;1.20;;;;;;;11.72;70.58;101186.94;5088297;28;20193;-68
2021/03/30 01:46:54;;;;;;;3.17;1.07;;;;;;;11.69;71.99;101180.91;5085298;28;20216;-68
2021/03/30 01:49:26;;;;;;;1.67;1.20;;;;;;;11.76;70.16;101176.84;5087642;28;20575;-67
2021/03/30 01:51:57;;;;;;;1.63;1.13;;;;;;;11.69;71.07;101170.16;5083080;28;20208;-68
2021/03/30 01:54:25;;;;;;;2.33;1.00;;;;;;;11.67;70.48;101174.78;5088987;28;20191;-68
2021/03/30 01:56:55;;;;;;;2.50;1.10;;;;;;;11.72;70.37;101186.94;5085309;28;20198;-68
2021/03/30 01:59:24;;;;;;;1.10;1.10;;;;;;;11.70;70.58;101186.19;5086572;28;20287;-68
2021/03/30 02:01:53;;;;;;;1.27;1.10;;;;;;;11.73;70.34;101187.81;5086661;28;20205;-68
2021/03/30 02:04:23;;;;;;;4.40;1.37;;;;;;;11.55;69.42;101151.34;5089465;28;20829;-68
2021/03/30 02:06:51;;;;;;;5.50;1.67;;;;;;;11.46;70.74;101147.44;5086389;28;20248;-68
2021/03/30 02:09:24;;;;;;;2.13;1.40;;;;;;;11.71;70.91;101187.06;5088348;28;20186;-71
2021/03/30 02:11:54;;;;;;;1.40;1.30;;;;;;;11.57;71.31;101170.94;5086345;28;20229;-71
2021/03/30 02:14:23;;;;;;;4.30;1.23;;;;;;;11.63;71.31;101178.59;5081438;28;20310;-71
2021/03/30 02:16:57;;;;;;;1.47;1.20;;;;;;;11.59;71.64;101180.63;5088774;28;20570;-71
2021/03/30 02:19:33;;;;;;;2.73;1.07;;;;;;;11.57;70.94;101158.34;5085338;28;20612;-71
2021/03/30 02:22:06;;;;;;;4.17;1.40;;;;;;;11.49;71.31;101156.16;5086092;28;20200;-71
2021/03/30 02:24:40;;;;;;;5.93;1.33;;;;;;;11.68;70.78;101179.19;5087966;28;20193;-71
2021/03/30 02:27:11;;;;;;;1.23;1.10;;;;;;;11.23;70.80;101086.22;5084553;28;20266;-71
2021/03/30 02:29:40;;;;;;;3.90;1.37;;;;;;;11.68;71.29;101171.13;5088271;28;20476;-71
2021/03/30 02:32:12;;;;;;;3.30;1.30;;;;;;;11.65;71.63;101171.31;5086310;28;20305;-71
2021/03/30 02:34:41;;;;;;;1.20;1.10;;;;;;;11.70;71.27;101169.19;5088026;28;20197;-71
2021/03/30 02:37:09;;;;;;;2.73;1.30;;;;;;;11.69;70.84;101170.16;5088669;28;20647;-70
2021/03/30 02:39:36;;;;;;;473.93;292.23;;;;;;;11.71;70.73;101163.69;5087569;28;20274;-71
2021/03/30 02:42:04;;;;;;;20.83;11.27;;;;;;;11.68;71.05;101168.41;5088077;28;20193;-71
2021/03/30 02:44:33;;;;;;;9.03;5.10;;;;;;;11.71;71.97;101160.16;5084219;28;20678;-71
2021/03/30 02:47:01;;;;;;;4.60;2.47;;;;;;;11.66;72.67;101164.97;5087218;28;20668;-71
2021/03/30 02:49:30;;;;;;;5.40;3.40;;;;;;;11.76;71.03;101164.25;5084352;28;20189;-71
2021/03/30 02:51:58;;;;;;;2.57;2.10;;;;;;;11.82;70.44;101154.94;5086916;28;20569;-71
2021/03/30 02:54:27;;;;;;;3.90;2.10;;;;;;;11.71;71.23;101141.31;5086442;28;20701;-71
2021/03/30 02:56:58;;;;;;;3.00;1.87;;;;;;;11.81;71.22;101154.06;5087431;28;20233;-71
2021/03/30 02:59:27;;;;;;;5.07;2.20;;;;;;;11.86;72.40;101151.06;5085895;28;20197;-71
2021/03/30 03:01:55;;;;;;;2.13;1.67;;;;;;;11.92;71.00;101157.88;5082378;28;20197;-71
2021/03/30 03:04:25;;;;;;;2.77;2.10;;;;;;;11.87;70.95;101146.56;5085986;28;20276;-70
2021/03/30 03:06:52;;;;;;;4.83;1.80;;;;;;;11.93;70.02;101156.91;5086073;28;20241;-72
2021/03/30 03:09:20;;;;;;;4.90;2.80;;;;;;;11.90;70.85;101152.59;5071533;28;20201;-69
2021/03/30 03:11:49;;;;;;;2.10;1.73;;;;;;;11.90;70.62;101146.34;5076154;28;20215;-70
2021/03/30 03:14:20;;;;;;;5.47;3.17;;;;;;;11.77;71.95;101133.69;5074461;28;20423;-70
2021/03/30 03:16:48;;;;;;;4.90;2.07;;;;;;;11.78;70.71;101105.84;5078075;28;20202;-69
2021/03/30 03:19:16;;;;;;;5.17;2.00;;;;;;;11.97;70.16;101147.69;5080766;28;20193;-69
2021/03/30 03:21:45;;;;;;;4.87;1.77;;;;;;;11.94;70.50;101132.59;5076120;28;20629;-69
2021/03/30 03:24:13;;;;;;;6.33;1.60;;;;;;;11.93;71.72;101135.38;5080364;28;20667;-69
2021/03/30 03:26:41;;;;;;;5.10;1.50;;;;;;;11.94;70.41;101131.72;5079647;28;20202;-69
2021/03/30 03:29:16;;;;;;;4.93;1.30;;;;;;;11.92;72.20;101133.66;5083966;28;20208;-69
2021/03/30 03:31:44;;;;;;;5.70;1.20;;;;;;;11.90;71.03;101132.91;5084675;28;20206;-69
2021/03/30 03:34:12;;;;;;;1.77;1.30;;;;;;;11.88;71.38;101138.38;5089627;28;20241;-69
2021/03/30 03:36:41;;;;;;;1.60;1.10;;;;;;;11.91;70.27;101140.00;5079529;28;20545;-70
2021/03/30 03:39:11;;;;;;;2.43;1.30;;;;;;;11.80;70.60;101124.59;5086292;28;20267;-71
2021/03/30 03:41:38;;;;;;;2.83;1.10;;;;;;;11.87;71.25;101142.03;5083542;28;20277;-71
2021/03/30 03:44:06;;;;;;;1.53;1.00;;;;;;;11.89;70.62;101137.41;5088116;28;20184;-70
2021/03/30 03:46:34;;;;;;;2.80;1.50;;;;;;;11.70;71.49;101118.94;5090237;28;20213;-70
2021/03/30 03:49:02;;;;;;;1.67;1.10;;;;;;;11.86;71.29;101151.06;5090886;28;20276;-70
2021/03/30 03:51:33;;;;;;;3.30;1.20;;;;;;;11.86;71.17;101134.94;5090923;28;20540;-70
2021/03/30 03:54:05;;;;;;;1.50;1.40;;;;;;;11.87;71.26;101136.66;5090828;28;20719;-72
2021/03/30 03:56:39;;;;;;;5.53;1.00;;;;;;;11.87;70.42;101136.66;5086998;28;20299;-72
2021/03/30 03:59:10;;;;;;;2.60;0.90;;;;;;;11.87;70.96;101142.03;5087206;28;20757;-69
2021/03/30 04:01:44;;;;;;;1.57;0.80;;;;;;;11.84;71.48;101144.94;5090886;28;20276;-71
2021/03/30 04:04:21;;;;;;;0.73;0.73;;;;;;;11.79;72.21;101150.63;5087052;28;20191;-71
2021/03/30 04:06:55;;;;;;;1.20;0.70;;;;;;;11.80;72.58;101143.41;5087526;28;20667;-71
2021/03/30 04:09:23;;;;;;;0.60;0.60;;;;;;;11.81;71.72;101148.69;5085387;28;20215;-69
2021/03/30 04:11:53;;;;;;;0.60;0.60;;;;;;;11.86;71.28;101147.53;5084280;28;20252;-71
2021/03/30 04:14:21;;;;;;;1.23;0.70;;;;;;;11.89;70.25;101155.38;5087438;28;20752;-71
2021/03/30 04:16:48;;;;;;;0.67;0.67;;;;;;;11.83;71.37;101159.34;5088604;28;20185;-71
2021/03/30 04:19:16;;;;;;;1.30;0.73;;;;;;;11.90;70.85;101149.91;5081093;28;20204;-71
2021/03/30 04:21:43;;;;;;;0.63;0.63;;;;;;;11.87;71.23;101152.81;5079443;28;20201;-70
2021/03/30 04:24:10;;;;;;;0.80;0.70;;;;;;;11.92;70.86;101144.41;5080720;28;20205;-70
2021/03/30 04:26:39;;;;;;;0.63;0.63;;;;;;;11.91;70.62;101148.06;5079010;28;20577;-70
2021/03/30 04:29:08;;;;;;;1.00;0.90;;;;;;;11.78;70.83;101124.69;5079120;28;20208;-71
2021/03/30 04:31:35;;;;;;;0.80;0.70;;;;;;;11.75;72.16;101129.38;5076021;28;20200;-71
2021/03/30 04:34:03;;;;;;;5.87;0.70;;;;;;;11.76;73.14;101144.56;5075815;28;20219;-70
2021/03/30 04:36:30;;;;;;;3.80;0.70;;;;;;;11.78;72.46;101142.66;5075967;28;20256;-71
2021/03/30 04:38:57;;;;;;;0.80;0.80;;;;;;;11.62;73.37;101115.00;5078657;28;20218;-71
2021/03/30 04:41:25;;;;;;;2.30;0.73;;;;;;;11.79;72.62;101145.25;5084802;28;20282;-70
2021/03/30 04:43:52;;;;;;;0.50;0.50;;;;;;;11.89;72.58;101152.69;5078041;28;20226;-70
2021/03/30 04:46:20;;;;;;;0.40;0.40;;;;;;;11.86;72.04;101142.13;5080839;28;20280;-70
2021/03/30 04:48:47;;;;;;;0.50;0.50;;;;;;;11.88;71.12;101138.38;5086834;28;20203;-70
2021/03/30 04:51:14;;;;;;;1999.90;995.53;;;;;;;11.91;72.27;101140.00;5075807;28;20277;-69
2021/03/30 04:53:41;;;;;;;375.17;163.43;;;;;;;11.90;72.48;101146.34;5076321;28;20565;-70
2021/03/30 04:56:09;;;;;;;43.17;26.37;;;;;;;11.91;72.48;101140.84;5073877;28;20685;-70
2021/03/30 04:58:36;;;;;;;10.97;7.07;;;;;;;11.95;72.46;101149.63;5079809;28;20227;-72
2021/03/30 05:01:04;;;;;;;9.07;4.80;;;;;;;11.97;71.77;101143.16;5075430;28;20357;-72
2021/03/30 05:03:32;;;;;;;3.63;2.47;;;;;;;12.07;70.60;101132.63;5074609;28;20195;-70
2021/03/30 05:05:59;;;;;;;2.50;2.17;;;;;;;12.18;69.49;101142.66;5080119;28;20232;-70
2021/03/30 05:08:26;;;;;;;3.03;2.70;;;;;;;12.04;70.17;101127.47;5078116;28;20659;-73
2021/03/30 05:10:53;;;;;;;1.90;1.70;;;;;;;12.16;70.52;101144.59;5080892;28;20204;-69
2021/03/30 05:13:21;;;;;;;10.37;8.77;;;;;;;12.18;70.33;101145.34;5078409;28;20217;-69
2021/03/30 05:15:48;;;;;;;2.23;2.00;;;;;;;12.20;70.55;101143.41;5071821;28;20655;-69
2021/03/30 05:18:15;;;;;;;1.07;1.00;;;;;;;12.20;71.24;101140.72;5072051;28;20194;-72
2021/03/30 05:20:43;;;;;;;1.00;1.00;;;;;;;12.20;71.03;101144.28;5080324;28;20222;-69
2021/03/30 05:23:11;;;;;;;1.10;1.10;;;;;;;12.21;71.12;101135.22;5081428;28;20287;-69
2021/03/30 05:25:38;;;;;;;2.47;2.30;;;;;;;12.26;70.05;101134.94;5078341;28;20211;-69
2021/03/30 05:28:06;;;;;;;0.80;0.80;;;;;;;12.23;70.64;101132.44;5083430;28;20261;-70
2021/03/30 05:30:33;;;;;;;0.80;0.80;;;;;;;12.25;69.93;101135.91;5075033;28;20286;-69
2021/03/30 05:33:00;;;;;;;0.70;0.70;;;;;;;12.19;70.50;101147.94;5080588;28;20312;-72
2021/03/30 05:35:28;;;;;;;1.30;1.20;;;;;;;12.25;69.78;101152.06;5073216;28;20220;-72
2021/03/30 05:37:56;;;;;;;1.00;1.00;;;;;;;12.20;70.88;101151.50;5077908;28;20289;-72
2021/03/30 05:40:23;;;;;;;1.17;0.60;;;;;;;12.16;71.34;101155.38;5079004;28;20196;-72
2021/03/30 05:42:50;;;;;;;0.70;0.70;;;;;;;12.20;70.67;101140.72;5075527;28;20196;-72
2021/03/30 05:45:19;;;;;;;0.70;0.70;;;;;;;12.21;70.93;101137.06;5079953;28;20286;-69
2021/03/30 05:47:49;;;;;;;0.47;0.47;;;;;;;12.05;71.51;101115.72;5071677;28;20191;-70
2021/03/30 05:50:18;;;;;;;0.60;0.60;;;;;;;12.21;71.22;101139.75;5071166;28;20199;-70
2021/03/30 05:52:47;;;;;;;0.63;0.57;;;;;;;12.17;72.20;101135.56;5072793;28;20607;-69
2021/03/30 05:55:23;;;;;;;1.90;0.70;;;;;;;12.24;70.96;101131.47;5072989;28;20193;-69
2021/03/30 05:57:51;;;;;;;0.87;0.87;;;;;;;12.22;69.52;101125.31;5072923;28;20202;-69
2021/03/30 06:00:21;;;;;;;0.70;0.70;;;;;;;12.26;70.81;101127.72;5073232;28;20186;-69
2021/03/30 06:02:52;;;;;;;0.60;0.60;;;;;;;12.29;70.31;101122.13;5071107;28;20506;-69
2021/03/30 06:05:23;;;;;;;1.03;0.60;;;;;;;12.11;69.66;101086.53;5073765;28;20218;-69
2021/03/30 06:07:53;;;;;;;0.80;0.80;;;;;;;12.29;nan;101126.66;5071860;28;20209;-68
2021/03/30 06:10:28;;;;;;;0.60;0.57;;;;;;;12.19;70.48;101112.06;5078742;28;20208;-68
2021/03/30 06:12:57;;;;;;;0.67;0.67;;;;;;;12.25;70.78;101127.84;5079077;28;20229;-69
2021/03/30 06:15:29;;;;;;;0.50;0.50;;;;;;;12.37;69.64;101124.28;5073097;28;20556;-69
2021/03/30 06:17:57;;;;;;;0.50;0.50;;;;;;;12.42;69.53;101143.69;5073806;28;20234;-69
2021/03/30 06:20:31;;;;;;;0.60;0.60;;;;;;;12.40;71.65;101134.84;5083252;28;20222;-71
2021/03/30 06:23:00;;;;;;;2.00;0.63;;;;;;;12.41;70.82;101136.56;5084248;28;20627;-71
2021/03/30 06:25:39;;;;;;;1.33;0.43;;;;;;;12.51;70.09;101139.47;5086133;28;20190;-71
2021/03/30 06:28:12;;;;;;;0.60;0.60;;;;;;;12.41;70.36;101131.19;5081549;28;20239;-71
2021/03/30 06:30:40;;;;;;;0.60;0.60;;;;;;;12.41;69.69;101126.66;5077691;28;20551;-71
2021/03/30 06:33:08;;;;;;;3.37;0.63;;;;;;;12.48;70.53;101135.16;5100670;28;20313;-71
2021/03/30 06:35:35;;;;;;;2.30;0.60;;;;;;;12.56;68.87;101138.22;5086322;28;20599;-71
2021/03/30 06:38:02;;;;;;;0.43;0.43;;;;;;;12.54;69.84;101136.56;5082535;28;20320;-69
2021/03/30 06:40:32;;;;;;;0.77;0.70;;;;;;;12.59;67.98;101129.06;5079510;28;20202;-71
2021/03/30 06:44:25;;;;;;;0.50;0.50;;;;;;;12.60;69.22;101133.47;5073793;28;20217;-71
2021/03/30 06:46:06;;;;;;;0.50;0.50;;;;;;;12.43;69.87;101105.88;5078200;28;20571;-71
2021/03/30 06:48:33;;;;;;;0.47;0.47;;;;;;;12.58;69.77;101122.81;5079436;28;20191;-69
2021/03/30 06:51:17;;;;;;;0.90;0.90;;;;;;;12.64;70.32;101111.59;5080518;28;20225;-69
2021/03/30 06:53:44;;;;;;;0.40;0.40;;;;;;;12.63;69.56;101109.88;5075162;28;20226;-69
2021/03/30 06:56:12;;;;;;;0.50;0.50;;;;;;;12.70;68.42;101112.97;5082318;28;20200;-71
2021/03/30 06:58:56;;;;;;;0.73;0.70;;;;;;;12.71;69.93;101110.19;5075883;28;20290;-69
2021/03/30 07:01:25;;;;;;;0.53;0.53;;;;;;;12.77;68.87;101113.41;5080919;28;20720;-71
2021/03/30 07:03:53;;;;;;;0.90;0.90;;;;;;;12.74;68.77;101107.25;5085417;28;20510;-72
2021/03/30 07:06:21;;;;;;;0.50;0.50;;;;;;;12.79;68.20;101103.38;5082021;28;20266;-71
2021/03/30 07:08:50;;;;;;;0.90;0.90;;;;;;;12.79;68.61;101111.47;5085591;28;20572;-68
2021/03/30 07:11:18;;;;;;;430.07;255.73;;;;;;;12.82;69.39;101108.53;5081192;28;20206;-68
2021/03/30 07:13:45;;;;;;;17.97;11.23;;;;;;;12.75;69.59;101086.56;5082452;28;20251;-68
2021/03/30 07:16:20;;;;;;;3.80;2.10;;;;;;;12.71;69.80;101076.97;5086119;28;20195;-68
2021/03/30 07:18:49;;;;;;;1.60;1.50;;;;;;;12.92;70.48;101099.72;5087052;28;20192;-68
2021/03/30 07:21:23;;;;;;;6.23;4.90;;;;;;;13.03;68.78;101102.47;5084259;28;20195;-68
2021/03/30 07:23:54;;;;;;;1.30;1.30;;;;;;;13.12;69.50;101100.94;5083591;28;20265;-71
2021/03/30 07:26:25;;;;;;;0.90;0.90;;;;;;;13.21;68.32;101097.63;5086256;28;20667;-71
2021/03/30 07:29:01;;;;;;;4.53;2.90;;;;;;;13.21;68.31;101100.34;5084117;28;20221;-68
2021/03/30 07:31:33;;;;;;;1.80;1.50;;;;;;;13.30;69.52;101104.19;5081502;28;20502;-68
2021/03/30 07:34:03;;;;;;;1.83;1.73;;;;;;;13.36;68.53;101099.19;5083811;28;20293;-68
2021/03/30 07:36:38;;;;;;;1.33;1.20;;;;;;;13.28;67.92;101080.00;5079359;28;20197;-68
2021/03/30 07:39:08;;;;;;;1.73;1.60;;;;;;;13.55;66.77;101114.03;5081938;28;20196;-68
2021/03/30 07:41:39;;;;;;;3.87;1.40;;;;;;;13.57;67.17;101110.25;5082335;28;20649;-69
2021/03/30 07:44:07;;;;;;;2.00;1.80;;;;;;;13.61;68.31;101117.13;5086576;28;20196;-69
2021/03/30 07:46:36;;;;;;;1.30;1.20;;;;;;;13.65;67.38;101115.06;5087888;28;20749;-68
2021/03/30 07:49:05;;;;;;;1.33;1.10;;;;;;;13.72;67.34;101120.84;5078511;28;20239;-69
2021/03/30 07:51:38;;;;;;;2.10;1.20;;;;;;;13.74;68.14;101124.28;5085577;28;20199;-69
2021/03/30 07:54:11;;;;;;;0.90;0.90;;;;;;;13.47;66.62;101062.44;5076534;28;20717;-68
2021/03/30 07:56:52;;;;;;;1.90;0.97;;;;;;;13.82;66.71;101130.00;5084289;28;20298;-69
2021/03/30 07:59:46;;;;;;;1.23;0.80;;;;;;;13.75;66.83;101109.81;5083155;28;20207;-69
2021/03/30 08:02:22;;;;;;;1.87;1.07;;;;;;;13.76;67.31;101115.09;5081894;28;20584;-69
2021/03/30 08:05:04;;;;;;;4.97;0.97;;;;;;;13.80;66.63;101127.41;5086115;28;20564;-69
2021/03/30 08:07:54;;;;;;;0.70;0.70;;;;;;;13.83;66.04;101115.53;5080855;28;20643;-69
2021/03/30 08:10:30;;;;;;;1.33;0.97;;;;;;;13.91;65.76;101122.06;5073631;28;20212;-70
2021/03/30 08:13:25;;;;;;;1.53;0.80;;;;;;;13.95;66.28;101123.53;5084396;28;20357;-68
2021/03/30 08:15:56;;;;;;;3.50;0.90;;;;;;;13.99;66.17;101118.78;5086492;28;20286;-68
2021/03/30 08:18:28;;;;;;;2.17;1.23;;;;;;;14.01;65.68;101113.25;5085695;28;20203;-68
2021/03/30 08:21:02;;;;;;;2.13;0.90;;;;;;;14.06;67.89;101125.41;5087604;28;20276;-68
2021/03/30 08:23:30;;;;;;;2.10;0.73;;;;;;;14.20;64.98;101117.13;5087608;28;20192;-68
2021/03/30 08:26:18;;;;;;;3.20;1.10;;;;;;;14.16;65.59;101101.28;5088136;28;20208;-68
2021/03/30 08:28:57;;;;;;;3.20;0.90;;;;;;;14.14;65.66;101087.91;5089792;28;20286;-68
2021/03/30 08:31:27;;;;;;;2.83;0.90;;;;;;;14.55;64.22;101138.75;5089501;28;20602;-69
2021/03/30 08:33:57;;;;;;;1.23;0.93;;;;;;;14.57;64.80;101131.38;5088769;28;20219;-69
2021/03/30 08:36:27;;;;;;;2.03;0.90;;;;;;;14.65;64.47;101119.09;5088346;28;20193;-71
2021/03/30 08:38:58;;;;;;;0.80;0.80;;;;;;;14.70;66.14;101133.16;5089080;28;20555;-72
2021/03/30 08:41:55;;;;;;;2.00;1.30;;;;;;;14.82;63.82;101124.91;5090331;28;20203;-71
2021/03/30 08:44:28;;;;;;;2.00;0.90;;;;;;;14.89;63.41;101114.47;5089419;28;20192;-71
2021/03/30 08:47:00;;;;;;;2.30;0.97;;;;;;;15.00;62.41;101133.41;5088646;28;20196;-71
2021/03/30 08:49:33;;;;;;;1.23;0.87;;;;;;;14.96;64.13;101137.31;5089257;28;20199;-71
2021/03/30 08:52:04;;;;;;;1.90;1.37;;;;;;;14.95;63.75;101130.19;5087305;28;20288;-70
2021/03/30 08:54:33;;;;;;;1.00;1.00;;;;;;;14.65;64.51;101082.13;5090302;28;20215;-70
2021/03/30 08:57:05;;;;;;;3.77;1.07;;;;;;;15.05;65.17;101142.00;5089965;28;20744;-70
2021/03/30 08:59:32;;;;;;;1.93;0.90;;;;;;;15.18;63.56;101131.06;5087349;28;20279;-72
2021/03/30 09:02:03;;;;;;;1.07;1.07;;;;;;;15.23;63.57;101143.22;5087095;28;20388;-72
2021/03/30 09:04:34;;;;;;;1.30;0.87;;;;;;;15.35;63.81;101154.06;5084707;28;20555;-71
2021/03/30 09:07:01;;;;;;;1.40;0.90;;;;;;;15.52;61.94;101146.25;5086892;28;20274;-71
2021/03/30 09:09:34;;;;;;;0.80;0.80;;;;;;;15.38;61.39;101105.94;5087925;28;20184;-71
2021/03/30 09:12:04;;;;;;;0.70;0.70;;;;;;;15.70;61.99;101143.06;5088701;28;20197;-71
2021/03/30 09:14:32;;;;;;;0.80;0.80;;;;;;;15.82;61.85;101151.03;5119505;27;20682;-71
2021/03/30 09:17:08;;;;;;;1.10;0.90;;;;;;;15.92;62.73;101136.69;5085375;28;20197;-71
2021/03/30 09:19:42;;;;;;;1.03;0.90;;;;;;;15.95;60.56;101095.84;5086676;28;20205;-71
2021/03/30 09:22:15;;;;;;;0.80;0.80;;;;;;;16.17;61.44;101139.06;5085335;28;20192;-71
2021/03/30 09:24:58;;;;;;;1.10;1.00;;;;;;;16.30;60.02;101126.22;5085891;28;20223;-69
2021/03/30 09:27:28;;;;;;;2.07;0.90;;;;;;;16.43;59.79;101142.25;5088896;28;20625;-70
2021/03/30 09:29:56;;;;;;;3.73;1.17;;;;;;;16.57;58.96;101132.97;5087035;28;20571;-69
2021/03/30 09:32:25;;;;;;;0.90;0.90;;;;;;;16.68;58.86;101132.91;5087367;28;20207;-69
2021/03/30 09:34:53;;;;;;;3.77;0.97;;;;;;;16.80;58.82;101129.13;5089052;28;20312;-69
2021/03/30 09:37:21;;;;;;;1.17;1.03;;;;;;;16.95;58.52;101127.78;5086310;28;20192;-69
2021/03/30 09:39:48;;;;;;;1.50;1.03;;;;;;;17.00;59.20;101141.78;5087642;28;20208;-70
2021/03/30 09:42:17;;;;;;;1.47;1.20;;;;;;;17.13;59.12;101135.25;5086389;28;20197;-69
2021/03/30 09:44:45;;;;;;;1.13;1.03;;;;;;;17.22;57.97;101131.75;5087590;28;20200;-70
2021/03/30 09:47:14;;;;;;;4.23;1.40;;;;;;;17.33;58.59;101128.91;5088785;28;20567;-69
2021/03/30 09:49:46;;;;;;;3.13;1.00;;;;;;;17.35;57.32;101135.06;5089117;28;20249;-71
2021/03/30 09:52:15;;;;;;;3.43;0.90;;;;;;;17.45;57.02;101140.53;5088604;28;20224;-72
2021/03/30 09:54:43;;;;;;;1.87;1.27;;;;;;;17.51;56.38;101146.28;5088659;28;20713;-71
2021/03/30 09:57:13;;;;;;;1.37;1.07;;;;;;;17.53;57.63;101144.28;5088665;28;20200;-72
2021/03/30 09:59:45;;;;;;;2.20;0.90;;;;;;;17.66;57.01;101135.88;5087375;28;20206;-71
2021/03/30 10:02:13;;;;;;;1.00;0.90;;;;;;;17.56;56.41;101114.13;5084678;28;20681;-71
2021/03/30 10:04:41;;;;;;;2.13;0.83;;;;;;;17.78;57.22;101147.53;5088477;28;20197;-70
2021/03/30 10:07:17;;;;;;;1.60;1.10;;;;;;;17.81;57.76;101145.38;5085800;28;20196;-71
2021/03/30 10:09:59;;;;;;;4.30;1.00;;;;;;;17.94;57.47;101155.97;5086105;28;20262;-71
2021/03/30 10:12:31;;;;;;;1.83;1.17;;;;;;;18.11;56.66;101149.84;5088843;28;20207;-71
2021/03/30 10:14:59;;;;;;;1.63;0.80;;;;;;;18.20;55.61;101151.69;5088415;28;20650;-71
2021/03/30 10:17:28;;;;;;;0.90;0.90;;;;;;;18.02;56.83;101111.75;5089109;28;20196;-71
2021/03/30 10:19:57;;;;;;;3.13;1.00;;;;;;;18.34;56.14;101144.94;5086788;28;20279;-71
2021/03/30 10:22:27;;;;;;;2.10;1.00;;;;;;;18.41;56.54;101139.81;5084045;28;20200;-71
2021/03/30 10:25:16;;;;;;;0.83;0.83;;;;;;;18.56;56.05;101147.38;5088045;28;20497;-71
2021/03/30 10:27:52;;;;;;;1.03;0.90;;;;;;;18.56;55.47;101117.44;5088278;28;20224;-71
2021/03/30 10:30:29;;;;;;;5.77;1.20;;;;;;;18.79;55.06;101158.81;5084611;28;20197;-71
2021/03/30 10:32:59;;;;;;;2.70;1.30;;;;;;;18.82;54.82;101150.34;5085450;28;20249;-71
2021/03/30 10:35:26;;;;;;;1.67;1.13;;;;;;;18.96;54.18;101145.44;5089001;28;20216;-69
2021/03/30 10:37:54;;;;;;;1.17;1.00;;;;;;;19.03;54.69;101135.69;5092637;28;20196;-71
2021/03/30 10:40:29;;;;;;;2.70;1.00;;;;;;;19.02;54.71;101134.81;5089667;28;20287;-69
2021/03/30 10:42:57;;;;;;;1.33;0.93;;;;;;;19.17;53.66;101141.50;5091079;28;20192;-71
2021/03/30 10:45:30;;;;;;;3.60;0.93;;;;;;;19.18;53.98;101136.91;5091628;28;20463;-69
2021/03/30 10:48:01;;;;;;;1.57;0.93;;;;;;;19.29;53.75;101112.22;5092257;28;20188;-71
2021/03/30 10:50:28;;;;;;;0.90;0.90;;;;;;;19.39;53.74;101126.63;5090564;28;20223;-71
2021/03/30 10:52:56;;;;;;;3.10;1.10;;;;;;;19.51;52.29;101125.41;5091643;28;20196;-71
2021/03/30 10:55:24;;;;;;;0.90;0.90;;;;;;;19.48;52.49;101136.59;5091572;28;20216;-71
2021/03/30 10:57:52;;;;;;;5.10;1.10;;;;;;;19.51;52.42;101130.84;5088902;28;20211;-71
2021/03/30 11:00:20;;;;;;;0.90;0.90;;;;;;;19.58;53.11;101141.16;5092455;28;20197;-71
2021/03/30 11:02:47;;;;;;;1.60;1.10;;;;;;;19.72;51.98;101137.94;5088683;28;20193;-71
2021/03/30 11:05:15;;;;;;;1.50;1.00;;;;;;;19.83;52.64;101138.56;5090142;28;20231;-71
2021/03/30 11:07:42;;;;;;;5.07;1.00;;;;;;;19.92;51.72;101144.97;5089597;28;20195;-71
2021/03/30 11:10:12;;;;;;;3.03;1.20;;;;;;;19.99;52.03;101140.63;5089939;28;20303;-71
2021/03/30 11:12:40;;;;;;;2.17;1.13;;;;;;;19.95;52.47;101144.66;5091213;28;20202;-71
2021/03/30 11:15:08;;;;;;;3.60;1.30;;;;;;;20.05;52.75;101120.91;5091950;28;20281;-69
2021/03/30 11:17:36;;;;;;;3.20;0.97;;;;;;;20.28;51.48;101134.94;5087663;28;20283;-71
2021/03/30 11:20:05;;;;;;;3.43;1.27;;;;;;;20.31;51.86;101136.47;5088372;28;20718;-71
2021/03/30 11:22:32;;;;;;;1.40;1.20;;;;;;;20.52;51.91;101147.09;5089285;28;20659;-70
2021/03/30 11:25:00;;;;;;;2.63;0.87;;;;;;;20.66;50.85;101131.00;5091217;28;20215;-69
2021/03/30 11:27:30;;;;;;;0.80;0.80;;;;;;;20.64;50.87;101130.28;5091931;28;20698;-71
2021/03/30 11:30:06;;;;;;;0.90;0.90;;;;;;;20.81;50.78;101146.78;5086778;28;20201;-71
2021/03/30 11:32:42;;;;;;;0.80;0.80;;;;;;;20.85;49.59;101145.47;5091923;28;20200;-71
2021/03/30 11:35:14;;;;;;;3.23;0.90;;;;;;;20.85;50.17;101118.16;5090249;28;20222;-72
2021/03/30 11:37:53;;;;;;;1.00;0.87;;;;;;;20.99;50.50;101133.94;5091549;28;20219;-71
2021/03/30 11:40:21;;;;;;;0.80;0.80;;;;;;;21.25;50.19;101145.72;5086373;28;20201;-71